createdAt,value
2023-05-19T00:00:00.382Z,69.38
2023-05-19T00:01:00.378Z,69.23
2023-05-19T00:02:00.484Z,69.53
2023-05-19T00:03:00.561Z,69.26
2023-05-19T00:04:00.401Z,69.12
2023-05-19T00:05:00.417Z,69.2
2023-05-19T00:06:00.445Z,69.16
2023-05-19T00:07:00.451Z,68.95
2023-05-19T00:08:00.470Z,68.96
2023-05-19T00:09:00.471Z,69.07
2023-05-19T00:10:00.472Z,68.55
2023-05-19T00:11:00.486Z,68.39
2023-05-19T00:12:00.515Z,68.77
2023-05-19T00:13:00.544Z,68.7
2023-05-19T00:14:00.625Z,68.38
2023-05-19T00:15:00.618Z,68.39
2023-05-19T00:16:00.710Z,68.34
2023-05-19T00:17:00.648Z,68.53
2023-05-19T00:18:00.737Z,68.29
2023-05-19T00:19:00.732Z,68.37
2023-05-19T00:20:00.706Z,68.18
2023-05-19T00:21:00.743Z,68.18
2023-05-19T00:22:00.755Z,68.32
2023-05-19T00:23:00.816Z,68.61
2023-05-19T00:24:00.830Z,68.25
2023-05-19T00:25:00.838Z,68.25
2023-05-19T00:26:00.858Z,67.87
2023-05-19T00:27:00.873Z,67.8
2023-05-19T00:28:00.891Z,67.37
2023-05-19T00:29:00.918Z,67.65
2023-05-19T00:30:00.932Z,67.46
2023-05-19T00:31:00.957Z,67.28
2023-05-19T00:32:00.963Z,67.19
2023-05-19T00:33:01.049Z,67.23
2023-05-19T00:34:00.990Z,67.38
2023-05-19T00:35:00.989Z,67.29
2023-05-19T00:36:00.981Z,67.42
2023-05-19T00:37:01.021Z,67.21
2023-05-19T00:38:01.032Z,67.33
2023-05-19T00:39:01.046Z,67.08
2023-05-19T00:40:01.067Z,67.44
2023-05-19T00:41:00.150Z,66.96
2023-05-19T00:42:00.114Z,66.74
2023-05-19T00:43:00.151Z,66.79
2023-05-19T00:44:00.214Z,67.06
2023-05-19T00:45:00.251Z,67
2023-05-19T00:46:00.209Z,67
2023-05-19T00:47:00.369Z,67.06
2023-05-19T00:48:00.290Z,66.9
2023-05-19T00:49:00.277Z,66.9
2023-05-19T00:50:00.292Z,66.7
2023-05-19T00:51:00.312Z,66.97
2023-05-19T00:52:00.328Z,66.72
2023-05-19T00:53:00.344Z,66.72
2023-05-19T00:54:00.360Z,66.7
2023-05-19T00:55:00.367Z,66.7
2023-05-19T00:56:00.381Z,66.45
2023-05-19T00:57:00.386Z,66.52
2023-05-19T00:58:00.391Z,66.42
2023-05-19T00:59:00.394Z,66.54
2023-05-19T01:00:00.427Z,66.49
2023-05-19T01:01:00.491Z,66.51
2023-05-19T01:02:00.469Z,66.51
2023-05-19T01:03:00.554Z,66.51
2023-05-19T01:04:00.641Z,66.34
2023-05-19T01:05:00.550Z,66.34
2023-05-19T01:06:00.613Z,66.35
2023-05-19T01:07:00.611Z,66.21
2023-05-19T01:08:00.628Z,66.12
2023-05-19T01:09:00.670Z,66.08
2023-05-19T01:10:00.710Z,66.12
2023-05-19T01:11:00.727Z,66
2023-05-19T01:12:00.726Z,66.12
2023-05-19T01:13:00.736Z,65.79
2023-05-19T01:14:00.774Z,66.2
2023-05-19T01:15:00.821Z,66.26
2023-05-19T01:16:00.878Z,66.28
2023-05-19T01:17:00.845Z,66.38
2023-05-19T01:18:00.880Z,66
2023-05-19T01:19:00.907Z,65.92
2023-05-19T01:20:00.895Z,65.95
2023-05-19T01:21:00.915Z,65.79
2023-05-19T01:22:00.927Z,65.97
2023-05-19T01:23:00.929Z,65.77
2023-05-19T01:24:00.939Z,65.8
2023-05-19T01:25:00.954Z,65.97
2023-05-19T01:26:00.959Z,65.74
2023-05-19T01:27:00.992Z,65.48
2023-05-19T01:28:01.020Z,65.46
2023-05-19T01:29:01.049Z,65.34
2023-05-19T01:30:01.090Z,65.46
2023-05-19T01:31:00.138Z,65.52
2023-05-19T01:32:00.212Z,65.52
2023-05-19T01:33:00.188Z,65.57
2023-05-19T01:34:00.170Z,65.38
2023-05-19T01:35:00.205Z,65.22
2023-05-19T01:36:00.235Z,65.61
2023-05-19T01:37:00.249Z,65.36
2023-05-19T01:38:00.275Z,65.27
2023-05-19T01:39:00.298Z,65.46
2023-05-19T01:40:00.322Z,65.45
2023-05-19T01:41:00.342Z,65.04
2023-05-19T01:42:00.369Z,65.2
2023-05-19T01:43:00.391Z,65.42
2023-05-19T01:44:00.420Z,65.22
2023-05-19T01:45:00.426Z,65.28
2023-05-19T01:46:00.497Z,64.9
2023-05-19T01:47:00.480Z,64.97
2023-05-19T01:48:00.542Z,64.82
2023-05-19T01:49:00.519Z,64.86
2023-05-19T01:50:00.548Z,64.55
2023-05-19T01:51:00.560Z,64.47
2023-05-19T01:52:00.572Z,64.27
2023-05-19T01:53:00.600Z,64.17
2023-05-19T01:54:00.608Z,63.96
2023-05-19T01:55:00.618Z,63.82
2023-05-19T01:56:00.625Z,63.63
2023-05-19T01:57:00.629Z,63.78
2023-05-19T01:58:00.675Z,63.49
2023-05-19T01:59:00.708Z,63.56
2023-05-19T02:00:00.713Z,63.61
2023-05-19T02:01:00.762Z,64.07
2023-05-19T02:02:00.784Z,63.66
2023-05-19T02:03:00.826Z,63.74
2023-05-19T02:04:00.848Z,63.48
2023-05-19T02:05:00.821Z,63.36
2023-05-19T02:06:00.839Z,63.56
2023-05-19T02:07:00.870Z,63.81
2023-05-19T02:08:00.891Z,63.38
2023-05-19T02:09:00.903Z,63.26
2023-05-19T02:10:00.916Z,63.37
2023-05-19T02:11:00.949Z,63.2
2023-05-19T02:12:00.952Z,63.19
2023-05-19T02:13:00.972Z,63.58
2023-05-19T02:14:00.996Z,63.5
2023-05-19T02:15:01.009Z,63.58
2023-05-19T02:16:01.049Z,63.66
2023-05-19T02:17:01.033Z,63.76
2023-05-19T02:18:01.069Z,63.31
2023-05-19T02:19:01.097Z,63.13
2023-05-19T02:20:01.041Z,63.02
2023-05-19T02:21:01.071Z,63.46
2023-05-19T02:22:00.129Z,63.47
2023-05-19T02:23:00.154Z,63.55
2023-05-19T02:24:00.169Z,63.48
2023-05-19T02:25:00.196Z,63.11
2023-05-19T02:26:00.221Z,63.28
2023-05-19T02:27:00.244Z,62.97
2023-05-19T02:28:00.277Z,62.83
2023-05-19T02:29:00.286Z,62.91
2023-05-19T02:30:00.371Z,62.78
2023-05-19T02:31:00.333Z,62.9
2023-05-19T02:32:00.440Z,62.75
2023-05-19T02:33:00.446Z,62.43
2023-05-19T02:34:00.428Z,62.28
2023-05-19T02:35:00.438Z,62.46
2023-05-19T02:36:00.453Z,62.43
2023-05-19T02:37:00.469Z,62.27
2023-05-19T02:38:00.507Z,62.68
2023-05-19T02:39:00.538Z,62.27
2023-05-19T02:40:00.526Z,62.19
2023-05-19T02:41:00.551Z,62.31
2023-05-19T02:42:00.560Z,61.84
2023-05-19T02:43:00.577Z,61.78
2023-05-19T02:44:00.593Z,62.11
2023-05-19T02:45:00.624Z,62.15
2023-05-19T02:46:00.730Z,62.25
2023-05-19T02:47:00.631Z,62.08
2023-05-19T02:48:00.700Z,62.25
2023-05-19T02:49:00.648Z,62.04
2023-05-19T02:50:00.651Z,61.87
2023-05-19T02:51:00.681Z,61.87
2023-05-19T02:52:00.691Z,61.83
2023-05-19T02:53:00.721Z,62.14
2023-05-19T02:54:00.748Z,62.16
2023-05-19T02:55:00.780Z,62.16
2023-05-19T02:56:00.806Z,62.16
2023-05-19T02:57:00.846Z,61.98
2023-05-19T02:58:00.858Z,61.98
2023-05-19T02:59:00.898Z,61.93
2023-05-19T03:00:00.908Z,62.12
2023-05-19T03:01:00.920Z,61.95
2023-05-19T03:02:01.023Z,61.73
2023-05-19T03:03:01.054Z,61.7
2023-05-19T03:04:01.199Z,61.62
2023-05-19T03:05:01.022Z,61.62
2023-05-19T03:06:01.057Z,61.77
2023-05-19T03:07:01.075Z,62
2023-05-19T03:08:00.188Z,61.78
2023-05-19T03:09:00.156Z,61.73
2023-05-19T03:10:00.167Z,61.64
2023-05-19T03:11:00.154Z,62.07
2023-05-19T03:12:00.171Z,62.09
2023-05-19T03:13:00.181Z,62.52
2023-05-19T03:14:00.179Z,62.52
2023-05-19T03:15:00.192Z,62.62
2023-05-19T03:16:00.258Z,62.86
2023-05-19T03:17:00.293Z,62.84
2023-05-19T03:18:00.268Z,62.57
2023-05-19T03:19:00.365Z,62.6
2023-05-19T03:20:00.279Z,62.63
2023-05-19T03:21:00.321Z,62.62
2023-05-19T03:22:00.346Z,62.51
2023-05-19T03:23:00.372Z,62.54
2023-05-19T03:24:00.392Z,62.54
2023-05-19T03:25:00.429Z,62.61
2023-05-19T03:26:00.431Z,62.68
2023-05-19T03:27:00.465Z,62.85
2023-05-19T03:28:00.500Z,62.81
2023-05-19T03:29:00.517Z,63.05
2023-05-19T03:30:00.539Z,63.68
2023-05-19T03:31:00.565Z,63.64
2023-05-19T03:32:00.646Z,63.11
2023-05-19T03:33:00.690Z,63.3
2023-05-19T03:34:00.623Z,63.52
2023-05-19T03:35:00.641Z,63.05
2023-05-19T03:36:00.682Z,63.27
2023-05-19T03:37:00.693Z,63.4
2023-05-19T03:38:00.691Z,63.29
2023-05-19T03:39:00.695Z,64.08
2023-05-19T03:40:00.713Z,64.22
2023-05-19T03:41:00.738Z,63.89
2023-05-19T03:42:00.740Z,64.2
2023-05-19T03:43:00.753Z,64.36
2023-05-19T03:44:00.762Z,64.24
2023-05-19T03:45:00.792Z,64.05
2023-05-19T03:46:00.928Z,64.16
2023-05-19T03:47:00.842Z,64.57
2023-05-19T03:48:00.907Z,64.13
2023-05-19T03:49:00.886Z,64.19
2023-05-19T03:50:00.910Z,64.53
2023-05-19T03:51:00.937Z,64.24
2023-05-19T03:52:00.958Z,64.77
2023-05-19T03:53:00.991Z,64.55
2023-05-19T03:54:01.000Z,64.47
2023-05-19T03:55:01.031Z,64.52
2023-05-19T03:56:01.044Z,65.04
2023-05-19T03:57:01.064Z,65.11
2023-05-19T03:58:01.082Z,65.38
2023-05-19T03:59:00.128Z,65.36
2023-05-19T04:00:00.241Z,65.2
2023-05-19T04:01:00.152Z,65.49
2023-05-19T04:02:00.192Z,65.62
2023-05-19T04:03:00.259Z,65.72
2023-05-19T04:04:00.226Z,65.51
2023-05-19T04:05:00.163Z,65.96
2023-05-19T04:06:00.196Z,66.01
2023-05-19T04:07:00.204Z,66.01
2023-05-19T04:08:00.213Z,65.93
2023-05-19T04:09:00.239Z,66.03
2023-05-19T04:10:00.327Z,66.06
2023-05-19T04:11:00.311Z,66.26
2023-05-19T04:12:00.329Z,66.29
2023-05-19T04:13:00.346Z,66.14
2023-05-19T04:14:00.364Z,66.22
2023-05-19T04:15:00.409Z,66.89
2023-05-19T04:16:00.452Z,66.8
2023-05-19T04:17:00.441Z,66.79
2023-05-19T04:18:00.527Z,67.03
2023-05-19T04:19:00.567Z,66.82
2023-05-19T04:20:00.495Z,66.87
2023-05-19T04:22:01.544Z,67.12
2023-05-19T04:23:00.553Z,67.3
2023-05-19T04:24:00.568Z,67.51
2023-05-19T04:25:00.576Z,67.57
2023-05-19T04:26:00.586Z,67.92
2023-05-19T04:27:00.595Z,67.9
2023-05-19T04:28:00.616Z,67.8
2023-05-19T04:29:00.608Z,68.19
2023-05-19T04:30:00.634Z,68.14
2023-05-19T04:31:00.647Z,68.1
2023-05-19T04:32:00.638Z,68.29
2023-05-19T04:33:00.717Z,68.37
2023-05-19T04:34:00.698Z,68.47
2023-05-19T04:35:00.720Z,68.79
2023-05-19T04:36:00.744Z,68.75
2023-05-19T04:37:00.767Z,68.79
2023-05-19T04:38:00.783Z,68.83
2023-05-19T04:39:00.817Z,69.02
2023-05-19T04:40:00.842Z,69.56
2023-05-19T04:41:00.873Z,69.96
2023-05-19T04:42:00.902Z,70.18
2023-05-19T04:43:00.925Z,70.13
2023-05-19T04:44:00.944Z,70.18
2023-05-19T04:45:00.973Z,70.31
2023-05-19T04:46:00.995Z,70.28
2023-05-19T04:47:01.081Z,71.14
2023-05-19T04:48:01.071Z,70.98
2023-05-19T04:49:01.068Z,71.67
2023-05-19T04:50:01.085Z,71.57
2023-05-19T04:51:00.136Z,71.56
2023-05-19T04:52:01.618Z,71.85
2023-05-19T04:53:00.370Z,71.83
2023-05-19T04:54:00.198Z,72.03
2023-05-19T04:55:00.862Z,72.54
2023-05-19T04:56:00.185Z,72.62
2023-05-19T04:57:00.202Z,72.65
2023-05-19T04:58:00.209Z,72.77
2023-05-19T04:59:00.242Z,72.99
2023-05-19T05:00:00.457Z,73.37
2023-05-19T05:01:00.238Z,73.48
2023-05-19T05:02:00.343Z,73.7
2023-05-19T05:03:00.417Z,74
2023-05-19T05:04:00.417Z,74.04
2023-05-19T05:05:00.329Z,74.1
2023-05-19T05:06:00.354Z,74.05
2023-05-19T05:07:00.360Z,73.98
2023-05-19T05:08:00.405Z,74.34
2023-05-19T05:09:00.414Z,74.3
2023-05-19T05:10:00.451Z,74.58
2023-05-19T05:11:00.464Z,74.45
2023-05-19T05:12:00.484Z,74.42
2023-05-19T05:13:00.512Z,74.4
2023-05-19T05:14:00.528Z,74.47
2023-05-19T05:15:00.550Z,74.69
2023-05-19T05:16:00.608Z,74.58
2023-05-19T05:17:00.584Z,74.17
2023-05-19T05:18:00.791Z,74.43
2023-05-19T05:19:00.664Z,74.46
2023-05-19T05:20:00.639Z,74.74
2023-05-19T05:21:00.653Z,75.13
2023-05-19T05:22:00.646Z,75.13
2023-05-19T05:23:00.653Z,74.91
2023-05-19T05:24:00.658Z,75.01
2023-05-19T05:25:00.702Z,75.61
2023-05-19T05:26:00.713Z,75.64
2023-05-19T05:27:00.754Z,75.9
2023-05-19T05:28:00.774Z,75.9
2023-05-19T05:29:00.801Z,75.94
2023-05-19T05:30:00.830Z,76.46
2023-05-19T05:31:00.857Z,76.58
2023-05-19T05:32:00.934Z,76.26
2023-05-19T05:33:00.987Z,76.4
2023-05-19T05:34:00.952Z,76.87
2023-05-19T05:35:00.966Z,77.51
2023-05-19T05:36:00.993Z,77.96
2023-05-19T05:37:01.010Z,77.75
2023-05-19T05:38:01.025Z,78.11
2023-05-19T05:39:01.055Z,78.23
2023-05-19T05:40:01.081Z,77.5
2023-05-19T05:41:00.099Z,77.69
2023-05-19T05:42:00.113Z,78.11
2023-05-19T05:43:00.174Z,78.07
2023-05-19T05:44:00.171Z,78.35
2023-05-19T05:45:00.189Z,78.13
2023-05-19T05:46:00.290Z,78.37
2023-05-19T05:47:00.204Z,78.81
2023-05-19T05:48:00.307Z,77.5
2023-05-19T05:49:00.232Z,78.28
2023-05-19T05:50:00.285Z,77.38
2023-05-19T05:51:00.257Z,77.57
2023-05-19T05:53:00.292Z,77.27
2023-05-19T05:54:00.316Z,77.8
2023-05-19T05:55:00.346Z,77.93
2023-05-19T05:56:00.384Z,78.04
2023-05-19T05:57:00.401Z,77.97
2023-05-19T05:58:00.424Z,78.48
2023-05-19T05:59:00.460Z,78.74
2023-05-19T06:00:00.499Z,78.77
2023-05-19T06:01:00.501Z,79.53
2023-05-19T06:02:00.561Z,79.5
2023-05-19T06:03:00.687Z,79.17
2023-05-19T06:04:00.597Z,79.3
2023-05-19T06:05:00.772Z,79.79
2023-05-19T06:06:00.675Z,79.99
2023-05-19T06:07:00.651Z,80.48
2023-05-19T06:08:00.684Z,81.15
2023-05-19T06:09:00.679Z,81.44
2023-05-19T06:10:00.717Z,82.04
2023-05-19T06:11:00.723Z,82.39
2023-05-19T06:12:00.758Z,81.76
2023-05-19T06:13:00.781Z,82.13
2023-05-19T06:14:00.793Z,82.64
2023-05-19T06:15:00.808Z,82.62
2023-05-19T06:16:02.133Z,82.42
2023-05-19T06:17:00.831Z,82.2
2023-05-19T06:18:00.867Z,83.1
2023-05-19T06:19:00.888Z,83.32
2023-05-19T06:20:00.861Z,84.48
2023-05-19T06:21:00.881Z,84.72
2023-05-19T06:22:00.875Z,85.33
2023-05-19T06:23:00.893Z,85.46
2023-05-19T06:24:00.910Z,85.63
2023-05-19T06:25:00.930Z,85.92
2023-05-19T06:26:00.956Z,86.4
2023-05-19T06:27:00.982Z,87.05
2023-05-19T06:28:01.043Z,88.35
2023-05-19T06:29:01.043Z,88.27
2023-05-19T06:30:01.085Z,87.9
2023-05-19T06:31:01.111Z,87.61
2023-05-19T06:32:00.166Z,87.19
2023-05-19T06:33:00.258Z,86.56
2023-05-19T06:34:00.211Z,86.42
2023-05-19T06:35:00.182Z,86.48
2023-05-19T06:36:00.208Z,86.38
2023-05-19T06:37:00.230Z,86.62
2023-05-19T06:38:00.236Z,86.79
2023-05-19T06:39:02.502Z,87.28
2023-05-19T06:40:00.271Z,87.18
2023-05-19T06:41:00.287Z,87.43
2023-05-19T06:42:00.308Z,87.1
2023-05-19T06:43:00.306Z,87.15
2023-05-19T06:44:00.321Z,87.52
2023-05-19T06:45:00.334Z,88.16
2023-05-19T06:46:00.332Z,88.13
2023-05-19T06:47:00.403Z,89.14
2023-05-19T06:48:00.463Z,88.63
2023-05-19T06:49:00.387Z,88.76
2023-05-19T06:50:00.434Z,88.98
2023-05-19T06:51:00.458Z,88.84
2023-05-19T06:52:00.481Z,89.32
2023-05-19T06:53:00.520Z,88.96
2023-05-19T06:54:00.566Z,89.86
2023-05-19T06:55:00.552Z,90.01
2023-05-19T06:56:00.694Z,91.55
2023-05-19T06:57:00.591Z,92.25
2023-05-19T06:58:00.615Z,93.08
2023-05-19T06:59:00.646Z,93.24
2023-05-19T07:00:00.644Z,94.31
2023-05-19T07:01:00.685Z,94.06
2023-05-19T07:02:00.734Z,94.25
2023-05-19T07:03:00.773Z,94.02
2023-05-19T07:04:00.854Z,94
2023-05-19T07:05:00.765Z,95.63
2023-05-19T07:06:00.747Z,95.31
2023-05-19T07:07:00.758Z,96.47
2023-05-19T07:08:00.772Z,96.99
2023-05-19T07:09:00.780Z,97.16
2023-05-19T07:10:00.788Z,96.5
2023-05-19T07:11:00.802Z,97
2023-05-19T07:12:00.829Z,97.11
2023-05-19T07:13:00.851Z,97.55
2023-05-19T07:14:00.880Z,97.47
2023-05-19T07:15:00.930Z,98.1
2023-05-19T07:16:00.996Z,98.96
2023-05-19T07:17:00.953Z,98.66
2023-05-19T07:18:01.019Z,99.43
2023-05-19T07:19:01.070Z,98.34
2023-05-19T07:20:01.049Z,98.8
2023-05-19T07:21:01.052Z,99.32
2023-05-19T07:22:01.070Z,99.76
2023-05-19T07:23:00.133Z,101.2
2023-05-19T07:24:00.200Z,101.1
2023-05-19T07:25:00.141Z,101.8
2023-05-19T07:26:00.164Z,101.9
2023-05-19T07:27:00.188Z,101.8
2023-05-19T07:28:00.211Z,102.1
2023-05-19T07:29:00.227Z,102.3
2023-05-19T07:30:00.234Z,102.3
2023-05-19T07:31:00.251Z,101.4
2023-05-19T07:32:00.290Z,100.9
2023-05-19T07:33:00.332Z,101.6
2023-05-19T07:34:00.278Z,102.1
2023-05-19T07:35:00.303Z,102
2023-05-19T07:36:00.289Z,102.5
2023-05-19T07:37:00.311Z,102.9
2023-05-19T07:38:00.307Z,102.4
2023-05-19T07:39:00.371Z,102.1
2023-05-19T07:40:00.386Z,102.8
2023-05-19T07:41:00.464Z,103.1
2023-05-19T07:42:00.448Z,104.2
2023-05-19T07:43:00.466Z,104.3
2023-05-19T07:44:00.498Z,104.3
2023-05-19T07:45:00.548Z,104.1
2023-05-19T07:46:00.706Z,103.9
2023-05-19T07:47:00.599Z,104.5
2023-05-19T07:48:00.725Z,103.6
2023-05-19T07:49:00.637Z,103.9
2023-05-19T07:50:00.657Z,103.8
2023-05-19T07:51:00.684Z,103.3
2023-05-19T07:52:00.697Z,101.9
2023-05-19T07:53:00.716Z,100.7
2023-05-19T07:54:00.742Z,101.3
2023-05-19T07:55:00.759Z,100.3
2023-05-19T07:56:00.772Z,99.71
2023-05-19T07:57:00.794Z,99.73
2023-05-19T07:58:00.807Z,98.44
2023-05-19T07:59:00.829Z,98.14
2023-05-19T08:00:00.867Z,97.87
2023-05-19T08:01:00.861Z,98.18
2023-05-19T08:02:00.905Z,97.94
2023-05-19T08:03:00.953Z,96.97
2023-05-19T08:04:01.008Z,97.66
2023-05-19T08:05:00.896Z,97.47
2023-05-19T08:06:00.902Z,97.05
2023-05-19T08:07:00.925Z,97.2
2023-05-19T08:08:00.950Z,96.52
2023-05-19T08:09:00.975Z,97.95
2023-05-19T08:10:01.013Z,97.59
2023-05-19T08:11:01.033Z,96.55
2023-05-19T08:12:01.057Z,97.08
2023-05-19T08:13:01.085Z,97.92
2023-05-19T08:14:00.124Z,98.46
2023-05-19T08:15:01.381Z,98.89
2023-05-19T08:16:00.255Z,99.31
2023-05-19T08:17:00.187Z,98.84
2023-05-19T08:18:00.247Z,99.22
2023-05-19T08:19:00.276Z,98.77
2023-05-19T08:20:00.250Z,98.63
2023-05-19T08:21:00.279Z,98.31
2023-05-19T08:22:00.309Z,98.46
2023-05-19T08:23:00.355Z,98.68
2023-05-19T08:24:00.337Z,98.52
2023-05-19T08:25:00.358Z,99.01
2023-05-19T08:26:00.397Z,98.59
2023-05-19T08:27:00.393Z,99.28
2023-05-19T08:28:00.422Z,98.77
2023-05-19T08:29:00.433Z,98
2023-05-19T08:30:00.460Z,97.9
2023-05-19T08:31:00.510Z,98.57
2023-05-19T08:32:00.461Z,98.26
2023-05-19T08:33:00.475Z,98.75
2023-05-19T08:34:00.532Z,98.89
2023-05-19T08:35:00.547Z,98.9
2023-05-19T08:36:00.563Z,96.89
2023-05-19T08:37:00.560Z,96.15
2023-05-19T08:38:00.583Z,95.07
2023-05-19T08:39:00.616Z,95.34
2023-05-19T08:40:00.653Z,94.96
2023-05-19T08:41:00.665Z,95.31
2023-05-19T08:42:00.701Z,94.59
2023-05-19T08:43:00.718Z,94.95
2023-05-19T08:44:00.769Z,96.02
2023-05-19T08:45:00.776Z,95.73
2023-05-19T08:46:00.780Z,95.53
2023-05-19T08:47:00.941Z,95.88
2023-05-19T08:48:00.834Z,94.67
2023-05-19T08:49:00.839Z,94.87
2023-05-19T08:50:00.865Z,95.81
2023-05-19T08:51:00.890Z,95.58
2023-05-19T08:52:00.899Z,95.83
2023-05-19T08:53:00.910Z,95.11
2023-05-19T08:54:00.938Z,94.49
2023-05-19T08:55:01.008Z,94.33
2023-05-19T08:56:00.943Z,93.57
2023-05-19T08:57:00.951Z,93.39
2023-05-19T08:58:00.965Z,91.65
2023-05-19T08:59:00.982Z,91.78
2023-05-19T09:00:01.030Z,91.94
2023-05-19T09:01:01.082Z,91.21
2023-05-19T09:02:01.057Z,91.91
2023-05-19T09:03:05.906Z,92.36
2023-05-19T09:04:00.216Z,92.25
2023-05-19T09:05:00.404Z,92.19
2023-05-19T09:06:00.253Z,92.02
2023-05-19T09:07:00.189Z,92.74
2023-05-19T09:08:00.216Z,92.73
2023-05-19T09:09:00.235Z,93.67
2023-05-19T09:10:00.272Z,93.23
2023-05-19T09:11:00.295Z,92.93
2023-05-19T09:12:00.342Z,93.45
2023-05-19T09:13:00.339Z,95.33
2023-05-19T09:14:00.370Z,95.33
2023-05-19T09:15:00.400Z,94.13
2023-05-19T09:16:00.421Z,94.21
2023-05-19T09:17:00.563Z,93.63
2023-05-19T09:18:00.479Z,94.7
2023-05-19T09:19:00.501Z,94.88
2023-05-19T09:20:00.493Z,94.97
2023-05-19T09:21:00.568Z,96.61
2023-05-19T09:22:00.515Z,96.82
2023-05-19T09:23:00.577Z,96.84
2023-05-19T09:24:00.560Z,97.39
2023-05-19T09:25:00.545Z,96.23
2023-05-19T09:26:00.553Z,95.92
2023-05-19T09:27:00.667Z,95.56
2023-05-19T09:28:00.580Z,94.74
2023-05-19T09:29:00.621Z,94.68
2023-05-19T09:30:00.648Z,94.96
2023-05-19T09:31:00.671Z,95.58
2023-05-19T09:32:01.220Z,94.35
2023-05-19T09:33:00.755Z,93.97
2023-05-19T09:34:00.747Z,94.65
2023-05-19T09:35:00.762Z,94.9
2023-05-19T09:36:00.790Z,94.83
2023-05-19T09:37:00.821Z,96.4
2023-05-19T09:38:00.840Z,96.67
2023-05-19T09:39:00.867Z,96.08
2023-05-19T09:40:00.884Z,94.51
2023-05-19T09:41:00.897Z,95.57
2023-05-19T09:42:00.940Z,95.55
2023-05-19T09:43:00.954Z,95.66
2023-05-19T09:44:00.987Z,95.95
2023-05-19T09:45:00.994Z,95.62
2023-05-19T09:46:01.014Z,94.63
2023-05-19T09:47:01.038Z,94.83
2023-05-19T09:48:01.082Z,93.95
2023-05-19T09:49:01.071Z,93.13
2023-05-19T09:50:01.085Z,93.34
2023-05-19T09:51:00.110Z,92.62
2023-05-19T09:52:00.158Z,93.82
2023-05-19T09:53:00.112Z,93.44
2023-05-19T09:54:00.167Z,94.36
2023-05-19T09:55:00.175Z,93.36
2023-05-19T09:56:00.144Z,94.14
2023-05-19T09:57:00.266Z,93.29
2023-05-19T09:58:00.209Z,92.79
2023-05-19T09:59:00.223Z,91.18
2023-05-19T10:00:00.332Z,91.24
2023-05-19T10:01:00.333Z,91.48
2023-05-19T10:02:00.296Z,92.16
2023-05-19T10:03:00.387Z,91.61
2023-05-19T10:04:00.343Z,90.51
2023-05-19T10:05:00.607Z,90.56
2023-05-19T10:06:00.399Z,90.18
2023-05-19T10:07:00.486Z,89.01
2023-05-19T10:08:00.437Z,87.78
2023-05-19T10:09:00.457Z,87.71
2023-05-19T10:10:00.496Z,88.63
2023-05-19T10:11:00.514Z,87.61
2023-05-19T10:12:00.518Z,87.14
2023-05-19T10:13:00.546Z,86.77
2023-05-19T10:14:00.549Z,86.81
2023-05-19T10:15:00.569Z,87.1
2023-05-19T10:16:01.074Z,87.67
2023-05-19T10:17:00.833Z,88
2023-05-19T10:18:00.618Z,88.88
2023-05-19T10:19:00.611Z,89
2023-05-19T10:20:00.617Z,89.8
2023-05-19T10:21:00.633Z,90.16
2023-05-19T10:22:00.667Z,90.02
2023-05-19T10:23:00.683Z,89.85
2023-05-19T10:24:00.703Z,90.27
2023-05-19T10:25:00.745Z,90.02
2023-05-19T10:26:00.751Z,89.2
2023-05-19T10:27:00.795Z,90.49
2023-05-19T10:28:00.796Z,91.13
2023-05-19T10:29:00.815Z,91.54
2023-05-19T10:30:00.842Z,92.46
2023-05-19T10:31:00.859Z,90.55
2023-05-19T10:32:00.929Z,90.71
2023-05-19T10:33:00.984Z,93.95
2023-05-19T10:34:00.924Z,94.49
2023-05-19T10:35:00.958Z,95.51
2023-05-19T10:36:00.956Z,94.27
2023-05-19T10:37:00.965Z,93.9
2023-05-19T10:38:00.992Z,93.05
2023-05-19T10:39:00.996Z,94.15
2023-05-19T10:40:01.011Z,94.61
2023-05-19T10:41:01.017Z,94.71
2023-05-19T10:42:01.024Z,94.2
2023-05-19T10:43:01.033Z,92.5
2023-05-19T10:44:01.078Z,93.13
2023-05-19T10:45:01.086Z,95.03
2023-05-19T10:46:00.133Z,94.04
2023-05-19T10:47:00.226Z,93.29
2023-05-19T10:48:00.277Z,94.84
2023-05-19T10:49:00.182Z,93.65
2023-05-19T10:50:00.230Z,94.03
2023-05-19T10:51:00.231Z,96.14
2023-05-19T10:52:00.274Z,96.77
2023-05-19T10:53:00.283Z,97.35
2023-05-19T10:54:00.308Z,96.91
2023-05-19T10:55:00.342Z,96.81
2023-05-19T10:56:00.346Z,94.22
2023-05-19T10:57:00.361Z,94.44
2023-05-19T10:58:00.415Z,93
2023-05-19T10:59:00.417Z,93.11
2023-05-19T11:00:00.445Z,92.88
2023-05-19T11:01:00.483Z,91.65
2023-05-19T11:02:00.484Z,92.29
2023-05-19T11:03:00.528Z,91.59
2023-05-19T11:04:00.537Z,91.93
2023-05-19T11:05:00.519Z,92.7
2023-05-19T11:06:00.522Z,92.57
2023-05-19T11:07:00.548Z,92.17
2023-05-19T11:08:00.566Z,91.97
2023-05-19T11:09:00.571Z,91.61
2023-05-19T11:10:00.582Z,91.61
2023-05-19T11:11:00.589Z,91.49
2023-05-19T11:12:00.627Z,92.85
2023-05-19T11:13:00.649Z,92.46
2023-05-19T11:14:00.681Z,92.72
2023-05-19T11:15:00.698Z,92.24
2023-05-19T11:16:00.728Z,91.11
2023-05-19T11:17:00.898Z,91.15
2023-05-19T11:18:00.846Z,90.64
2023-05-19T11:19:00.835Z,89.57
2023-05-19T11:20:00.823Z,88.99
2023-05-19T11:21:00.893Z,88.22
2023-05-19T11:22:00.859Z,88.39
2023-05-19T11:23:00.926Z,89.82
2023-05-19T11:24:01.018Z,88.88
2023-05-19T11:25:00.925Z,88.78
2023-05-19T11:26:00.948Z,90.24
2023-05-19T11:27:00.983Z,90.79
2023-05-19T11:28:01.001Z,92.18
2023-05-19T11:29:01.009Z,91.64
2023-05-19T11:30:01.023Z,91.93
2023-05-19T11:31:01.061Z,91.33
2023-05-19T11:32:01.115Z,91.37
2023-05-19T11:33:01.087Z,91.31
2023-05-19T11:34:01.072Z,90.43
2023-05-19T11:35:00.120Z,90.03
2023-05-19T11:36:00.147Z,89.55
2023-05-19T11:37:00.172Z,89.93
2023-05-19T11:38:00.176Z,90.68
2023-05-19T11:39:00.157Z,88.87
2023-05-19T11:40:00.177Z,89.53
2023-05-19T11:41:00.187Z,90.71
2023-05-19T11:42:00.209Z,91.07
2023-05-19T11:43:00.235Z,91.17
2023-05-19T11:44:00.253Z,90.82
2023-05-19T11:45:00.310Z,91.2
2023-05-19T11:46:00.454Z,91.02
2023-05-19T11:47:00.331Z,89.58
2023-05-19T11:48:02.521Z,89.92
2023-05-19T11:49:00.385Z,89.61
2023-05-19T11:50:00.384Z,89.03
2023-05-19T11:51:00.399Z,89.34
2023-05-19T11:52:00.423Z,89.05
2023-05-19T11:53:00.492Z,89.1
2023-05-19T11:54:00.492Z,89.46
2023-05-19T11:55:00.469Z,88.46
2023-05-19T11:56:00.482Z,90.18
2023-05-19T11:57:00.488Z,90.12
2023-05-19T11:58:04.074Z,89.53
2023-05-19T11:59:00.537Z,89.42
2023-05-19T12:00:00.528Z,88.94
2023-05-19T12:01:00.530Z,88.6
2023-05-19T12:02:00.546Z,88.21
2023-05-19T12:03:00.659Z,88.43
2023-05-19T12:04:00.648Z,87.79
2023-05-19T12:05:00.690Z,88.34
2023-05-19T12:06:00.724Z,87.97
2023-05-19T12:07:00.672Z,87.84
2023-05-19T12:08:00.701Z,86.83
2023-05-19T12:09:00.723Z,86.48
2023-05-19T12:10:00.769Z,87.32
2023-05-19T12:11:00.799Z,86.74
2023-05-19T12:12:00.860Z,86.94
2023-05-19T12:13:00.831Z,87.11
2023-05-19T12:14:00.842Z,86.29
2023-05-19T12:15:00.889Z,85.14
2023-05-19T12:16:00.954Z,85.38
2023-05-19T12:17:00.920Z,86.11
2023-05-19T12:18:01.009Z,84.74
2023-05-19T12:19:00.966Z,84.79
2023-05-19T12:20:00.949Z,84.63
2023-05-19T12:21:00.967Z,85.33
2023-05-19T12:22:02.223Z,85.57
2023-05-19T12:23:01.215Z,86.18
2023-05-19T12:24:01.033Z,86.42
2023-05-19T12:25:01.031Z,86.42
2023-05-19T12:26:01.033Z,86.24
2023-05-19T12:27:01.028Z,86.52
2023-05-19T12:28:01.066Z,86
2023-05-19T12:29:00.125Z,85.83
2023-05-19T12:30:00.159Z,85.56
2023-05-19T12:31:00.138Z,85.4
2023-05-19T12:32:00.290Z,85.51
2023-05-19T12:33:00.220Z,85.23
2023-05-19T12:34:00.225Z,85.46
2023-05-19T12:35:00.280Z,85.19
2023-05-19T12:36:00.314Z,85.58
2023-05-19T12:37:00.303Z,86.04
2023-05-19T12:38:00.334Z,85.3
2023-05-19T12:39:00.373Z,85.17
2023-05-19T12:40:00.391Z,85.07
2023-05-19T12:41:00.436Z,84.13
2023-05-19T12:42:00.470Z,84.65
2023-05-19T12:43:00.467Z,84.37
2023-05-19T12:44:00.486Z,84.43
2023-05-19T12:45:01.537Z,84.62
2023-05-19T12:46:00.589Z,84.8
2023-05-19T12:47:00.557Z,84.48
2023-05-19T12:48:00.630Z,84.16
2023-05-19T12:49:00.592Z,84.44
2023-05-19T12:50:00.609Z,83.69
2023-05-19T12:51:00.618Z,83.02
2023-05-19T12:52:02.580Z,83.44
2023-05-19T12:53:00.649Z,83
2023-05-19T12:54:00.673Z,83.98
2023-05-19T12:55:00.708Z,84.37
2023-05-19T12:56:00.660Z,84.62
2023-05-19T12:57:00.686Z,85.02
2023-05-19T12:58:00.751Z,84.92